Ramsar, Iran
Current Conditions -  °F | °C
As of 11:00 AM on Sunday 23 Nov 2014 (Local Time) from OINR Reporting Station
Overcast Overcast  
Wind Chill: 57°   Ceiling: 8000
Heat Index: 57°   Visibility: 6mi
Dew Point: 54°   Wind: 9mph
Humidity: 88%   Direction: 330°NNW
Pressure: 29.94"   Gusts: NA
Location:  36.9°N, 50.67°E
Report Text: OINR 230800Z 33008KT 9999 SCT015 FEW022CB OVC080 14/12 Q1014
Loading
Personal Weather Stations






























Interactive Weather Map New forecast layout! Learn more

10-Day Weather Forecast

Advertisements
Track Severe Weather on mobile